METAR AND TAF INFORMATION
METAR FOR EKRN
ADDS - METARS form results

(0542 UTC 17 October 2021)
Data provider http://aviationweather.gov/metar/data/
 
METAR text: EKRN 170520Z AUTO 27016KT 9999 FEW018/// BKN053/// 11/08 Q1015
Conditions at: EKRN (RONNE , DK) observed 0520 UTC 17 October 2021
Temperature: 11.0°C (52°F)
Dewpoint: 8.0°C (46°F) [RH = 82%]
Pressure (altimeter): 29.97 inches Hg (1015.0 mb)
Winds: from the W (270 degrees) at 18 MPH (16 knots; 8.2 m/s)
Visibility: 6 or more miles (10+ km)
Ceiling: 5300 feet AGL
Clouds: few clouds at 1800 feet AGL
broken clouds at 5300 feet AGL
Weather: no significant weather observed at this time

METAR text: EKRN 170450Z AUTO 26017KT 9999 FEW018/// SCT021/// BKN077/// 11/08 Q1014
Conditions at: EKRN (RONNE , DK) observed 0450 UTC 17 October 2021
Temperature: 11.0°C (52°F)
Dewpoint: 8.0°C (46°F) [RH = 82%]
Pressure (altimeter): 29.94 inches Hg (1014.0 mb)
Winds: from the W (260 degrees) at 20 MPH (17 knots; 8.7 m/s)
Visibility: 6 or more miles (10+ km)
Ceiling: 7700 feet AGL
Clouds: few clouds at 1800 feet AGL
scattered clouds at 2100 feet AGL
broken clouds at 7700 feet AGL
Weather: no significant weather observed at this time

Forecast for: EKRN (RONNE , DK)
Text: TAF EKRN 170506Z 1706/1715 27015KT 9999 SCT020
Forecast period: 0600 to 1500 UTC 17 October 2021
Forecast type: FROM: standard forecast or significant change
Winds: from the W (270 degrees) at 17 MPH (15 knots; 7.7 m/s)
Visibility: 6 or more miles (10+ km)
Ceiling: at least 12,000 feet AGL
Clouds: scattered clouds at 2000 feet AGL
Weather: no significant weather forecast for this period
Text: TEMPO 1706/1715 SCT015TCU
Forecast period: 0600 to 1500 UTC 17 October 2021
Forecast type: TEMPORARY: The following changes expected for less than half the time period
Visibility: missing
Ceiling: at least 12,000 feet AGL
Clouds: scattered clouds at 1500 feet AGL
Weather: no significant weather forecast for this period

 AIRPORT MAP

 RUNWAY INFORMATION
Runway 11 Runway length 6568 ft Runway width 148 ft
Runway elevation 46 ft Runway displaced threshold 0 ft Runway heading 114
Runway 29 Runway length 6568 ft Runway width 148 ft
Runway elevation 51 ft Runway displaced threshold 0 ft Runway heading 294

 AIRPORT FREQUENCIES
Type MISC Name HANDLING Frequency 131.55 MHZ
Type APP/TWR Name Frequency 118.325 MHZ

 AIRPORT NEAR NAVIGATION AIDS
Type TACAN Name Ronne Frequency 112000 KHZ
Type VOR-DME Name Ronne Frequency 112000 KHZ





Powered by Virtual Airlines Manager

Maps by Rafael Santos